createdAt,value
2019-04-06T00:01:30.748Z,26.00
2019-04-06T00:07:36.577Z,24.33
2019-04-06T00:22:41.129Z,27.90
2019-04-06T00:34:30.305Z,26.77
2019-04-06T00:40:20.543Z,27.33
2019-04-06T00:43:11.767Z,25.73
2019-04-06T00:49:05.355Z,31.37
2019-04-06T00:55:18.383Z,30.37
2019-04-06T01:04:22.692Z,30.00
2019-04-06T01:06:56.509Z,27.70
2019-04-06T01:09:27.291Z,28.37
2019-04-06T01:12:17.284Z,30.13
2019-04-06T01:14:49.082Z,27.47
2019-04-06T01:17:43.118Z,26.03
2019-04-06T01:20:29.031Z,29.97
2019-04-06T01:23:13.244Z,30.50
2019-04-06T01:26:06.386Z,28.67
2019-04-06T01:31:36.648Z,28.93
2019-04-06T01:34:19.301Z,26.27
2019-04-06T01:39:58.316Z,25.77
2019-04-06T01:42:49.757Z,28.63
2019-04-06T01:45:21.695Z,26.87
2019-04-06T01:48:11.275Z,30.97
2019-04-06T01:51:00.872Z,29.80
2019-04-06T01:53:51.845Z,30.23
2019-04-06T01:56:41.475Z,25.90
2019-04-06T01:59:31.311Z,33.83
2019-04-06T02:02:39.618Z,31.77
2019-04-06T02:05:29.566Z,31.47
2019-04-06T02:08:19.392Z,30.77
2019-04-06T02:11:08.943Z,28.30
2019-04-06T02:14:01.403Z,29.47
2019-04-06T02:16:32.159Z,30.93
2019-04-06T02:19:03.028Z,31.73
2019-04-06T02:21:52.548Z,31.23
2019-04-06T02:24:23.377Z,29.30
2019-04-06T02:27:13.077Z,32.50
2019-04-06T02:29:44.259Z,42.70
2019-04-06T02:32:44.811Z,32.20
2019-04-06T02:35:53.202Z,36.47
2019-04-06T02:39:02.463Z,34.87
2019-04-06T02:42:08.014Z,33.77
2019-04-06T02:44:38.641Z,32.53
2019-04-06T02:47:28.735Z,35.43
2019-04-06T02:53:12.568Z,35.97
2019-04-06T02:56:02.301Z,37.30
2019-04-06T02:58:33.630Z,38.13
2019-04-06T03:01:25.240Z,36.87
2019-04-06T03:04:15.477Z,37.07
2019-04-06T03:06:57.080Z,33.33
2019-04-06T03:09:28.299Z,33.57
2019-04-06T03:12:01.433Z,34.93
2019-04-06T03:14:32.366Z,34.67
2019-04-06T03:17:22.225Z,38.07
2019-04-06T03:20:11.992Z,35.40
2019-04-06T03:22:42.794Z,33.07
2019-04-06T03:25:23.476Z,36.73
2019-04-06T03:28:13.093Z,33.90
2019-04-06T03:31:02.975Z,30.83
2019-04-06T03:33:52.795Z,35.77
2019-04-06T03:36:43.009Z,37.80
2019-04-06T03:39:33.644Z,36.07
2019-04-06T03:42:23.597Z,31.67
2019-04-06T03:44:54.410Z,37.03
2019-04-06T03:47:38.422Z,34.83
2019-04-06T03:50:27.963Z,38.97
2019-04-06T03:53:17.543Z,39.03
2019-04-06T03:55:48.150Z,42.13
2019-04-06T03:58:19.493Z,39.80
2019-04-06T04:01:09.571Z,40.60
2019-04-06T04:03:59.352Z,40.77
2019-04-06T04:09:44.956Z,40.17
2019-04-06T04:12:15.600Z,38.53
2019-04-06T04:15:05.874Z,39.60
2019-04-06T04:21:46.099Z,38.03
2019-04-06T04:24:35.688Z,40.90
2019-04-06T04:27:06.480Z,48.20
2019-04-06T04:29:37.631Z,37.27
2019-04-06T04:32:08.398Z,39.73
2019-04-06T04:34:39.166Z,38.83
2019-04-06T04:37:10.044Z,36.10
2019-04-06T04:39:59.707Z,39.03
2019-04-06T04:42:30.424Z,34.93
2019-04-06T04:45:01.499Z,40.90
2019-04-06T04:47:51.274Z,36.43
2019-04-06T04:50:24.483Z,37.63
2019-04-06T04:52:55.375Z,43.00
2019-04-06T04:55:25.992Z,37.97
2019-04-06T04:58:15.908Z,39.17
2019-04-06T05:04:27.466Z,38.90
2019-04-06T05:06:58.031Z,40.13
2019-04-06T05:09:28.627Z,45.10
2019-04-06T05:12:18.657Z,38.83
2019-04-06T05:15:28.979Z,46.80
2019-04-06T05:17:59.905Z,45.30
2019-04-06T05:23:45.604Z,37.43
2019-04-06T05:26:16.246Z,38.83
2019-04-06T05:28:46.868Z,37.27
2019-04-06T05:31:17.741Z,39.43
2019-04-06T05:34:08.479Z,36.93
2019-04-06T05:36:58.298Z,43.60
2019-04-06T05:39:29.081Z,34.50
2019-04-06T05:42:19.051Z,40.47
2019-04-06T05:44:50.126Z,35.27
2019-04-06T05:47:40.793Z,42.47
2019-04-06T05:50:12.019Z,37.97
2019-04-06T05:52:42.643Z,39.37
2019-04-06T05:55:13.936Z,34.37
2019-04-06T05:57:44.727Z,39.23
2019-04-06T06:00:16.713Z,38.60
2019-04-06T06:02:47.290Z,41.30
2019-04-06T06:05:27.240Z,40.27
2019-04-06T06:07:58.028Z,42.10
2019-04-06T06:10:28.998Z,42.13
2019-04-06T06:13:18.608Z,43.03
2019-04-06T06:15:52.145Z,45.73
2019-04-06T06:21:55.665Z,47.70
2019-04-06T06:24:45.649Z,41.23
2019-04-06T06:27:16.861Z,47.60
2019-04-06T06:29:47.437Z,45.53
2019-04-06T06:32:31.024Z,50.43
2019-04-06T06:35:05.741Z,48.07
2019-04-06T06:37:36.463Z,54.00
2019-04-06T06:40:08.841Z,55.83
2019-04-06T06:42:39.642Z,42.80
2019-04-06T06:45:10.647Z,46.37
2019-04-06T06:47:41.448Z,44.60
2019-04-06T06:50:48.555Z,41.67
2019-04-06T06:53:18.502Z,51.60
2019-04-06T06:59:05.902Z,53.87
2019-04-06T07:01:57.965Z,47.23
2019-04-06T07:04:47.791Z,43.77
2019-04-06T07:07:18.518Z,47.03
2019-04-06T07:10:09.054Z,43.30
2019-04-06T07:12:44.655Z,41.10
2019-04-06T07:15:16.240Z,37.77
2019-04-06T07:17:46.985Z,41.27
2019-04-06T07:20:17.960Z,39.13
2019-04-06T07:26:06.275Z,44.27
2019-04-06T07:28:39.002Z,41.67
2019-04-06T07:34:23.527Z,41.27
2019-04-06T07:36:54.836Z,44.70
2019-04-06T07:43:07.526Z,36.03
2019-04-06T07:46:01.438Z,41.57
2019-04-06T07:48:41.105Z,37.70
2019-04-06T07:51:31.067Z,30.73
2019-04-06T07:54:20.816Z,37.67
2019-04-06T07:57:11.052Z,40.10
2019-04-06T07:59:42.025Z,35.10
2019-04-06T08:02:36.232Z,34.33
2019-04-06T08:05:28.420Z,34.30
2019-04-06T08:07:58.986Z,34.03
2019-04-06T08:10:30.401Z,48.37
2019-04-06T08:13:01.057Z,42.73
2019-04-06T08:15:50.887Z,38.60
2019-04-06T08:18:21.582Z,37.73
2019-04-06T08:21:12.576Z,38.27
2019-04-06T08:23:43.165Z,35.53
2019-04-06T08:26:38.011Z,38.87
2019-04-06T08:29:08.685Z,37.03
2019-04-06T08:31:40.223Z,35.40
2019-04-06T08:34:31.376Z,34.43
2019-04-06T08:37:03.331Z,35.87
2019-04-06T08:40:01.079Z,32.40
2019-04-06T08:42:32.255Z,34.00
2019-04-06T08:45:23.238Z,37.77
2019-04-06T08:48:16.921Z,36.17
2019-04-06T08:50:47.836Z,35.87
2019-04-06T08:53:25.293Z,32.13
2019-04-06T08:55:57.390Z,34.43
2019-04-06T08:58:36.377Z,35.80
2019-04-06T09:01:27.526Z,35.63
2019-04-06T09:04:17.856Z,37.03
2019-04-06T09:06:48.643Z,36.20
2019-04-06T09:09:39.228Z,38.60
2019-04-06T09:12:29.336Z,37.43
2019-04-06T09:15:00.195Z,36.43
2019-04-06T09:17:50.737Z,41.67
2019-04-06T09:20:21.768Z,36.37
2019-04-06T09:22:52.815Z,38.07
2019-04-06T09:25:23.798Z,36.13
2019-04-06T09:28:14.001Z,34.23
2019-04-06T09:30:44.728Z,36.97
2019-04-06T09:33:35.365Z,34.83
2019-04-06T09:36:07.797Z,32.17
2019-04-06T09:38:41.025Z,36.63
2019-04-06T09:41:26.123Z,35.90
2019-04-06T09:43:59.210Z,39.60
2019-04-06T09:47:01.963Z,40.77
2019-04-06T09:50:12.225Z,40.27
2019-04-06T09:53:02.075Z,38.63
2019-04-06T09:55:39.442Z,39.40
2019-04-06T09:58:29.778Z,36.70
2019-04-06T10:01:51.947Z,38.00
2019-04-06T10:04:44.432Z,38.07
2019-04-06T10:07:34.427Z,38.63
2019-04-06T10:10:46.332Z,35.43
2019-04-06T10:13:35.752Z,37.03
2019-04-06T10:16:45.194Z,36.10
2019-04-06T10:19:55.175Z,34.57
2019-04-06T10:22:45.453Z,35.57
2019-04-06T10:25:39.034Z,32.00
2019-04-06T10:28:26.999Z,34.40
2019-04-06T10:31:16.501Z,31.93
2019-04-06T10:34:26.161Z,32.83
2019-04-06T10:37:15.944Z,32.47
2019-04-06T10:43:08.125Z,34.83
2019-04-06T10:45:57.588Z,32.63
2019-04-06T10:48:47.796Z,34.83
2019-04-06T10:51:56.659Z,35.03
2019-04-06T10:55:09.577Z,32.30
2019-04-06T10:58:17.804Z,35.50
2019-04-06T11:04:43.368Z,39.07
2019-04-06T11:07:50.761Z,36.40
2019-04-06T11:10:40.967Z,33.47
2019-04-06T11:16:31.383Z,32.27
2019-04-06T11:19:42.474Z,31.13
2019-04-06T11:22:51.423Z,33.27
2019-04-06T11:25:35.546Z,33.13
2019-04-06T11:28:20.689Z,32.43
2019-04-06T11:31:16.489Z,31.67
2019-04-06T11:34:44.678Z,30.13
2019-04-06T11:37:55.504Z,32.93
2019-04-06T11:40:56.401Z,30.67
2019-04-06T11:43:48.194Z,29.10
2019-04-06T11:46:38.014Z,30.63
2019-04-06T11:49:20.793Z,26.97
2019-04-06T11:52:35.132Z,25.27
2019-04-06T11:55:25.037Z,26.07
2019-04-06T12:01:26.297Z,25.40
2019-04-06T12:04:15.852Z,22.60
2019-04-06T12:07:00.951Z,24.17
2019-04-06T12:10:11.575Z,21.87
2019-04-06T12:12:55.559Z,22.57
2019-04-06T12:15:48.063Z,21.17
2019-04-06T12:18:37.615Z,20.20
2019-04-06T12:21:59.978Z,14.40
2019-04-06T12:25:02.430Z,15.40
2019-04-06T12:28:14.156Z,20.97
2019-04-06T12:31:22.775Z,20.03
2019-04-06T12:34:13.410Z,21.47
2019-04-06T12:37:22.024Z,19.30
2019-04-06T12:40:12.584Z,19.47
2019-04-06T12:43:08.236Z,22.67
2019-04-06T12:46:04.698Z,18.07
2019-04-06T12:48:47.866Z,20.20
2019-04-06T12:51:33.397Z,18.47
2019-04-06T12:54:23.350Z,18.30
2019-04-06T12:57:31.889Z,17.90
2019-04-06T13:00:50.900Z,18.80
2019-04-06T13:03:32.706Z,18.43
2019-04-06T13:06:26.684Z,20.77
2019-04-06T13:09:35.143Z,17.67
2019-04-06T13:12:26.751Z,14.63
2019-04-06T13:15:32.888Z,15.90
2019-04-06T13:18:30.299Z,17.90
2019-04-06T13:24:47.385Z,16.30
2019-04-06T13:27:55.827Z,14.67
2019-04-06T13:31:07.592Z,15.23
2019-04-06T13:34:08.405Z,16.60
2019-04-06T13:37:09.045Z,14.20
2019-04-06T13:39:59.787Z,14.53
2019-04-06T13:43:10.682Z,15.97
2019-04-06T13:46:03.130Z,13.87
2019-04-06T13:48:52.544Z,15.27
2019-04-06T13:52:01.932Z,12.87
2019-04-06T13:55:10.595Z,13.80
2019-04-06T13:58:20.281Z,13.57
2019-04-06T14:01:30.477Z,13.30
2019-04-06T14:04:13.793Z,14.40
2019-04-06T14:07:03.316Z,13.93
2019-04-06T14:10:13.013Z,14.43
2019-04-06T14:13:03.643Z,12.07
2019-04-06T14:15:53.123Z,12.60
2019-04-06T14:19:04.229Z,12.47
2019-04-06T14:28:54.033Z,14.50
2019-04-06T14:31:43.651Z,11.73
2019-04-06T14:41:02.802Z,10.80
2019-04-06T14:47:34.163Z,10.57
2019-04-06T14:50:26.297Z,10.87
2019-04-06T14:53:21.586Z,10.33
2019-04-06T15:03:02.658Z,10.83
2019-04-06T15:05:53.295Z,12.37
2019-04-06T15:08:33.753Z,13.67
2019-04-06T15:18:06.119Z,10.43
2019-04-06T15:23:49.078Z,12.53
2019-04-06T15:27:02.805Z,10.03
2019-04-06T15:33:43.058Z,10.67
2019-04-06T15:36:52.072Z,12.30
2019-04-06T15:40:17.022Z,10.97
2019-04-06T15:57:32.109Z,10.53
2019-04-06T16:00:14.167Z,12.03
2019-04-06T16:02:57.039Z,10.07
2019-04-06T16:05:33.166Z,9.33
2019-04-06T16:08:29.057Z,10.90
2019-04-06T16:11:14.500Z,11.00
2019-04-06T16:20:18.561Z,11.07
2019-04-06T16:26:34.154Z,11.27
2019-04-06T16:32:33.259Z,10.77
2019-04-06T16:38:06.882Z,9.97
2019-04-06T16:44:13.688Z,10.80
2019-04-06T16:49:54.763Z,10.83
2019-04-06T16:53:06.644Z,10.23
2019-04-06T16:56:10.743Z,10.80
2019-04-06T17:05:10.441Z,11.00
2019-04-06T17:08:21.913Z,9.80
2019-04-06T17:18:15.390Z,10.10
2019-04-06T17:24:33.765Z,13.87
2019-04-06T17:27:23.812Z,11.87
2019-04-06T17:30:16.506Z,10.90
2019-04-06T17:33:23.568Z,8.37
2019-04-06T17:36:18.711Z,8.00
2019-04-06T17:39:13.202Z,12.43
2019-04-06T17:42:11.472Z,11.80
2019-04-06T17:45:19.690Z,12.10
2019-04-06T17:48:22.898Z,15.07
2019-04-06T17:54:33.926Z,9.63
2019-04-06T17:57:49.125Z,10.53
2019-04-06T18:04:18.527Z,11.10
2019-04-06T18:07:11.825Z,11.93
2019-04-06T18:10:06.205Z,11.80
2019-04-06T18:13:01.953Z,13.03
2019-04-06T18:23:23.517Z,18.77
2019-04-06T19:16:12.813Z,14.27
2019-04-06T19:19:40.800Z,15.83
2019-04-06T19:22:36.794Z,14.87
2019-04-06T19:32:11.522Z,15.03
2019-04-06T19:35:06.654Z,16.77
2019-04-06T19:37:59.683Z,16.73
2019-04-06T19:40:39.681Z,15.70
2019-04-06T19:55:50.913Z,27.87
2019-04-06T20:01:26.168Z,19.93
2019-04-06T20:04:12.315Z,17.93
2019-04-06T20:11:17.743Z,16.13
2019-04-06T20:21:06.860Z,19.37
2019-04-06T20:24:33.024Z,17.03
2019-04-06T20:27:30.595Z,18.47
2019-04-06T20:56:09.695Z,21.63
2019-04-06T21:02:16.159Z,22.70
2019-04-06T21:05:00.354Z,25.53
2019-04-06T21:07:58.663Z,20.13
2019-04-06T21:14:42.833Z,23.87
2019-04-06T21:21:38.704Z,20.77
2019-04-06T21:24:15.712Z,27.00
2019-04-06T21:26:50.992Z,23.03
2019-04-06T21:29:29.666Z,31.07
2019-04-06T21:32:01.790Z,22.33
2019-04-06T21:34:34.967Z,25.87
2019-04-06T21:37:09.784Z,26.93
2019-04-06T21:39:41.707Z,23.77
2019-04-06T21:42:13.049Z,27.13
2019-04-06T21:44:44.931Z,30.30
2019-04-06T21:47:19.413Z,26.33
2019-04-06T21:49:52.285Z,25.87
2019-04-06T21:52:26.252Z,24.67
2019-04-06T21:54:57.856Z,22.60
2019-04-06T21:57:30.992Z,24.37
2019-04-06T22:00:05.743Z,24.03
2019-04-06T22:02:36.859Z,20.47
2019-04-06T22:05:08.338Z,22.57
2019-04-06T22:07:49.606Z,23.47
2019-04-06T22:10:17.262Z,24.27
2019-04-06T22:12:49.032Z,25.37
2019-04-06T22:15:25.672Z,25.17
2019-04-06T22:17:56.739Z,28.97
2019-04-06T22:20:28.943Z,22.63
2019-04-06T22:23:07.021Z,23.27
2019-04-06T22:25:49.354Z,24.10
2019-04-06T22:28:25.617Z,27.13
2019-04-06T22:31:50.169Z,46.93
2019-04-06T22:34:34.044Z,24.37
2019-04-06T22:36:55.940Z,24.50
2019-04-06T22:39:28.365Z,25.70
2019-04-06T22:49:11.249Z,28.03
2019-04-06T22:51:43.419Z,30.23
2019-04-06T22:54:16.307Z,26.43
2019-04-06T22:56:48.364Z,63.37
2019-04-06T22:59:21.440Z,26.80
2019-04-06T23:01:53.355Z,29.17
2019-04-06T23:04:29.792Z,29.70
2019-04-06T23:07:07.612Z,27.23
2019-04-06T23:09:38.516Z,29.67
2019-04-06T23:12:10.208Z,29.97
2019-04-06T23:14:42.080Z,27.13
2019-04-06T23:17:13.596Z,28.07
2019-04-06T23:19:45.337Z,28.13
2019-04-06T23:22:23.536Z,27.63
2019-04-06T23:24:57.017Z,28.70
2019-04-06T23:27:28.209Z,28.57
2019-04-06T23:30:01.851Z,26.10
2019-04-06T23:32:33.099Z,28.63
2019-04-06T23:35:07.057Z,28.87
2019-04-06T23:41:13.649Z,25.77
2019-04-06T23:43:46.973Z,26.43
2019-04-06T23:46:19.017Z,25.93
2019-04-06T23:48:55.214Z,29.40
2019-04-06T23:51:28.490Z,28.00
2019-04-06T23:54:07.069Z,28.73
2019-04-06T23:56:38.589Z,32.13
2019-04-06T23:59:12.990Z,32.50
